sensor_id;sensor_type;location;lat;lon;timestamp;temperature;humidity
76172;DHT22;64929;51.178;4.138;2023-06-26T00:01:45;24.50;58.10
76172;DHT22;64929;51.178;4.138;2023-06-26T00:04:11;24.50;57.70
76172;DHT22;64929;51.178;4.138;2023-06-26T00:06:40;24.40;58.40
76172;DHT22;64929;51.178;4.138;2023-06-26T00:09:07;24.20;59.50
76172;DHT22;64929;51.178;4.138;2023-06-26T00:11:33;24.10;60.00
76172;DHT22;64929;51.178;4.138;2023-06-26T00:14:01;24.20;59.80
76172;DHT22;64929;51.178;4.138;2023-06-26T00:16:27;24.10;59.00
76172;DHT22;64929;51.178;4.138;2023-06-26T00:18:53;24.00;58.90
76172;DHT22;64929;51.178;4.138;2023-06-26T00:21:19;23.90;59.50
76172;DHT22;64929;51.178;4.138;2023-06-26T00:23:45;23.90;58.90
76172;DHT22;64929;51.178;4.138;2023-06-26T00:26:12;23.90;59.20
76172;DHT22;64929;51.178;4.138;2023-06-26T00:28:37;23.90;58.00
76172;DHT22;64929;51.178;4.138;2023-06-26T00:31:03;23.80;59.10
76172;DHT22;64929;51.178;4.138;2023-06-26T00:33:29;23.80;59.10
76172;DHT22;64929;51.178;4.138;2023-06-26T00:35:55;23.70;59.20
76172;DHT22;64929;51.178;4.138;2023-06-26T00:38:20;23.80;58.90
76172;DHT22;64929;51.178;4.138;2023-06-26T00:40:46;23.70;59.10
76172;DHT22;64929;51.178;4.138;2023-06-26T00:43:12;23.70;60.20
76172;DHT22;64929;51.178;4.138;2023-06-26T00:45:37;23.90;59.20
76172;DHT22;64929;51.178;4.138;2023-06-26T00:48:03;23.70;59.10
76172;DHT22;64929;51.178;4.138;2023-06-26T00:50:29;23.70;59.60
76172;DHT22;64929;51.178;4.138;2023-06-26T00:52:55;23.80;59.20
76172;DHT22;64929;51.178;4.138;2023-06-26T00:55:26;23.80;59.60
76172;DHT22;64929;51.178;4.138;2023-06-26T00:57:52;23.60;59.70
76172;DHT22;64929;51.178;4.138;2023-06-26T01:00:18;23.80;59.30
76172;DHT22;64929;51.178;4.138;2023-06-26T01:02:44;23.60;59.90
76172;DHT22;64929;51.178;4.138;2023-06-26T01:05:10;23.30;61.30
76172;DHT22;64929;51.178;4.138;2023-06-26T01:07:38;23.30;61.70
76172;DHT22;64929;51.178;4.138;2023-06-26T01:10:07;23.40;61.30
76172;DHT22;64929;51.178;4.138;2023-06-26T01:12:33;23.30;62.50
76172;DHT22;64929;51.178;4.138;2023-06-26T01:15:00;23.30;62.20
76172;DHT22;64929;51.178;4.138;2023-06-26T01:17:29;23.10;62.60
76172;DHT22;64929;51.178;4.138;2023-06-26T01:20:02;23.00;64.10
76172;DHT22;64929;51.178;4.138;2023-06-26T01:25:41;23.00;64.30
76172;DHT22;64929;51.178;4.138;2023-06-26T01:28:10;23.00;64.80
76172;DHT22;64929;51.178;4.138;2023-06-26T01:30:41;22.80;65.70
76172;DHT22;64929;51.178;4.138;2023-06-26T01:33:07;23.00;65.20
76172;DHT22;64929;51.178;4.138;2023-06-26T01:35:33;22.90;65.60
76172;DHT22;64929;51.178;4.138;2023-06-26T01:38:19;22.90;65.80
76172;DHT22;64929;51.178;4.138;2023-06-26T01:40:46;22.70;66.90
76172;DHT22;64929;51.178;4.138;2023-06-26T01:43:30;22.90;66.30
76172;DHT22;64929;51.178;4.138;2023-06-26T01:46:10;22.90;67.00
76172;DHT22;64929;51.178;4.138;2023-06-26T01:49:01;22.80;67.00
76172;DHT22;64929;51.178;4.138;2023-06-26T01:51:30;22.70;68.00
76172;DHT22;64929;51.178;4.138;2023-06-26T01:53:59;22.80;67.60
76172;DHT22;64929;51.178;4.138;2023-06-26T01:56:26;22.70;68.20
76172;DHT22;64929;51.178;4.138;2023-06-26T01:58:54;22.90;67.50
76172;DHT22;64929;51.178;4.138;2023-06-26T02:01:20;22.80;67.70
76172;DHT22;64929;51.178;4.138;2023-06-26T02:03:47;22.90;67.30
76172;DHT22;64929;51.178;4.138;2023-06-26T02:06:12;22.90;67.90
76172;DHT22;64929;51.178;4.138;2023-06-26T02:08:38;22.80;68.00
76172;DHT22;64929;51.178;4.138;2023-06-26T02:11:03;22.90;68.20
76172;DHT22;64929;51.178;4.138;2023-06-26T02:13:29;22.60;69.80
76172;DHT22;64929;51.178;4.138;2023-06-26T02:15:55;22.70;69.00
76172;DHT22;64929;51.178;4.138;2023-06-26T02:18:21;22.50;70.10
76172;DHT22;64929;51.178;4.138;2023-06-26T02:20:48;22.60;69.90
76172;DHT22;64929;51.178;4.138;2023-06-26T02:23:13;22.40;70.80
76172;DHT22;64929;51.178;4.138;2023-06-26T02:25:39;22.30;71.00
76172;DHT22;64929;51.178;4.138;2023-06-26T02:28:05;22.20;71.60
76172;DHT22;64929;51.178;4.138;2023-06-26T02:30:31;22.10;72.30
76172;DHT22;64929;51.178;4.138;2023-06-26T02:32:56;22.00;72.60
76172;DHT22;64929;51.178;4.138;2023-06-26T02:35:22;22.00;73.20
76172;DHT22;64929;51.178;4.138;2023-06-26T02:37:48;22.00;73.10
76172;DHT22;64929;51.178;4.138;2023-06-26T02:40:13;22.00;73.50
76172;DHT22;64929;51.178;4.138;2023-06-26T02:42:39;21.90;73.90
76172;DHT22;64929;51.178;4.138;2023-06-26T02:45:05;22.00;73.70
76172;DHT22;64929;51.178;4.138;2023-06-26T02:47:31;22.00;74.00
76172;DHT22;64929;51.178;4.138;2023-06-26T02:49:57;21.90;74.10
76172;DHT22;64929;51.178;4.138;2023-06-26T02:52:22;21.70;75.00
76172;DHT22;64929;51.178;4.138;2023-06-26T02:54:48;21.60;75.60
76172;DHT22;64929;51.178;4.138;2023-06-26T02:57:14;21.50;75.80
76172;DHT22;64929;51.178;4.138;2023-06-26T02:59:39;21.50;75.80
76172;DHT22;64929;51.178;4.138;2023-06-26T03:02:05;21.40;76.70
76172;DHT22;64929;51.178;4.138;2023-06-26T03:04:31;21.40;76.50
76172;DHT22;64929;51.178;4.138;2023-06-26T03:06:57;21.20;77.50
76172;DHT22;64929;51.178;4.138;2023-06-26T03:09:23;21.10;77.80
76172;DHT22;64929;51.178;4.138;2023-06-26T03:11:49;21.10;78.20
76172;DHT22;64929;51.178;4.138;2023-06-26T03:14:14;21.00;78.20
76172;DHT22;64929;51.178;4.138;2023-06-26T03:16:40;21.10;77.90
76172;DHT22;64929;51.178;4.138;2023-06-26T03:19:06;21.30;77.50
76172;DHT22;64929;51.178;4.138;2023-06-26T03:21:32;21.30;77.40
76172;DHT22;64929;51.178;4.138;2023-06-26T03:23:58;21.20;77.70
76172;DHT22;64929;51.178;4.138;2023-06-26T03:26:24;21.00;78.20
76172;DHT22;64929;51.178;4.138;2023-06-26T03:28:53;21.00;77.60
76172;DHT22;64929;51.178;4.138;2023-06-26T03:31:19;21.20;77.30
76172;DHT22;64929;51.178;4.138;2023-06-26T03:33:45;21.20;77.30
76172;DHT22;64929;51.178;4.138;2023-06-26T03:36:11;21.00;78.60
76172;DHT22;64929;51.178;4.138;2023-06-26T03:38:36;20.90;78.80
76172;DHT22;64929;51.178;4.138;2023-06-26T03:41:02;20.90;78.90
76172;DHT22;64929;51.178;4.138;2023-06-26T03:43:28;20.90;79.30
76172;DHT22;64929;51.178;4.138;2023-06-26T03:45:54;20.80;79.20
76172;DHT22;64929;51.178;4.138;2023-06-26T03:48:19;20.90;78.70
76172;DHT22;64929;51.178;4.138;2023-06-26T03:50:45;21.10;77.70
76172;DHT22;64929;51.178;4.138;2023-06-26T03:53:11;20.80;79.20
76172;DHT22;64929;51.178;4.138;2023-06-26T03:55:37;20.90;78.80
76172;DHT22;64929;51.178;4.138;2023-06-26T03:58:04;20.70;78.70
76172;DHT22;64929;51.178;4.138;2023-06-26T04:00:30;20.70;79.20
76172;DHT22;64929;51.178;4.138;2023-06-26T04:02:56;20.60;79.30
76172;DHT22;64929;51.178;4.138;2023-06-26T04:05:23;20.70;79.20
76172;DHT22;64929;51.178;4.138;2023-06-26T04:07:52;20.70;79.20
76172;DHT22;64929;51.178;4.138;2023-06-26T04:10:18;20.60;79.70
76172;DHT22;64929;51.178;4.138;2023-06-26T04:12:45;20.70;79.50
76172;DHT22;64929;51.178;4.138;2023-06-26T04:15:10;20.80;78.90
76172;DHT22;64929;51.178;4.138;2023-06-26T04:17:36;20.50;79.80
76172;DHT22;64929;51.178;4.138;2023-06-26T04:20:02;20.60;79.40
76172;DHT22;64929;51.178;4.138;2023-06-26T04:22:32;20.40;80.50
76172;DHT22;64929;51.178;4.138;2023-06-26T04:24:58;20.50;79.90
76172;DHT22;64929;51.178;4.138;2023-06-26T04:27:24;20.50;79.90
76172;DHT22;64929;51.178;4.138;2023-06-26T04:29:49;20.20;81.20
76172;DHT22;64929;51.178;4.138;2023-06-26T04:32:15;20.30;80.70
76172;DHT22;64929;51.178;4.138;2023-06-26T04:34:40;20.40;80.00
76172;DHT22;64929;51.178;4.138;2023-06-26T04:37:09;20.50;79.70
76172;DHT22;64929;51.178;4.138;2023-06-26T04:39:36;20.50;79.00
76172;DHT22;64929;51.178;4.138;2023-06-26T04:42:03;20.80;78.40
76172;DHT22;64929;51.178;4.138;2023-06-26T04:44:29;20.60;79.00
76172;DHT22;64929;51.178;4.138;2023-06-26T04:46:54;20.60;79.40
76172;DHT22;64929;51.178;4.138;2023-06-26T04:49:20;20.50;79.00
76172;DHT22;64929;51.178;4.138;2023-06-26T04:51:46;20.40;79.60
76172;DHT22;64929;51.178;4.138;2023-06-26T04:54:11;20.40;79.40
76172;DHT22;64929;51.178;4.138;2023-06-26T04:56:37;20.40;78.80
76172;DHT22;64929;51.178;4.138;2023-06-26T04:59:05;20.30;79.80
76172;DHT22;64929;51.178;4.138;2023-06-26T05:01:31;20.40;79.40
76172;DHT22;64929;51.178;4.138;2023-06-26T05:03:58;20.50;78.80
76172;DHT22;64929;51.178;4.138;2023-06-26T05:06:24;20.40;79.30
76172;DHT22;64929;51.178;4.138;2023-06-26T05:08:50;20.40;79.00
76172;DHT22;64929;51.178;4.138;2023-06-26T05:11:16;20.50;78.50
76172;DHT22;64929;51.178;4.138;2023-06-26T05:13:41;20.50;78.50
76172;DHT22;64929;51.178;4.138;2023-06-26T05:16:07;20.40;78.80
76172;DHT22;64929;51.178;4.138;2023-06-26T05:18:35;20.50;77.80
76172;DHT22;64929;51.178;4.138;2023-06-26T05:21:01;20.50;77.90
76172;DHT22;64929;51.178;4.138;2023-06-26T05:23:27;20.50;78.00
76172;DHT22;64929;51.178;4.138;2023-06-26T05:25:55;20.60;76.90
76172;DHT22;64929;51.178;4.138;2023-06-26T05:28:21;20.60;76.70
76172;DHT22;64929;51.178;4.138;2023-06-26T05:30:50;20.40;77.60
76172;DHT22;64929;51.178;4.138;2023-06-26T05:33:17;20.60;76.70
76172;DHT22;64929;51.178;4.138;2023-06-26T05:35:45;20.50;77.30
76172;DHT22;64929;51.178;4.138;2023-06-26T05:38:13;20.60;76.60
76172;DHT22;64929;51.178;4.138;2023-06-26T05:40:39;20.30;76.90
76172;DHT22;64929;51.178;4.138;2023-06-26T05:43:06;20.50;75.80
76172;DHT22;64929;51.178;4.138;2023-06-26T05:45:32;20.70;75.00
76172;DHT22;64929;51.178;4.138;2023-06-26T05:47:58;20.70;75.20
76172;DHT22;64929;51.178;4.138;2023-06-26T05:50:24;20.90;74.00
76172;DHT22;64929;51.178;4.138;2023-06-26T05:52:51;20.90;73.70
76172;DHT22;64929;51.178;4.138;2023-06-26T05:55:17;20.60;75.00
76172;DHT22;64929;51.178;4.138;2023-06-26T05:57:43;20.60;75.40
76172;DHT22;64929;51.178;4.138;2023-06-26T06:00:10;20.80;73.90
76172;DHT22;64929;51.178;4.138;2023-06-26T06:02:40;20.90;73.60
76172;DHT22;64929;51.178;4.138;2023-06-26T06:05:07;21.00;73.00
76172;DHT22;64929;51.178;4.138;2023-06-26T06:07:33;20.90;73.20
76172;DHT22;64929;51.178;4.138;2023-06-26T06:10:00;21.20;71.80
76172;DHT22;64929;51.178;4.138;2023-06-26T06:12:26;21.00;72.70
76172;DHT22;64929;51.178;4.138;2023-06-26T06:14:52;21.00;71.70
76172;DHT22;64929;51.178;4.138;2023-06-26T06:17:20;21.10;69.80
76172;DHT22;64929;51.178;4.138;2023-06-26T06:19:45;21.00;71.40
76172;DHT22;64929;51.178;4.138;2023-06-26T06:22:11;21.10;70.40
76172;DHT22;64929;51.178;4.138;2023-06-26T06:24:37;21.30;69.80
76172;DHT22;64929;51.178;4.138;2023-06-26T06:27:03;21.20;69.00
76172;DHT22;64929;51.178;4.138;2023-06-26T06:29:29;21.10;70.20
76172;DHT22;64929;51.178;4.138;2023-06-26T06:31:56;21.40;68.70
76172;DHT22;64929;51.178;4.138;2023-06-26T06:34:22;21.60;68.00
76172;DHT22;64929;51.178;4.138;2023-06-26T06:36:48;21.60;67.50
76172;DHT22;64929;51.178;4.138;2023-06-26T06:39:15;21.70;67.60
76172;DHT22;64929;51.178;4.138;2023-06-26T06:41:41;21.60;67.00
76172;DHT22;64929;51.178;4.138;2023-06-26T06:44:07;21.40;66.90
76172;DHT22;64929;51.178;4.138;2023-06-26T06:46:32;21.20;67.20
76172;DHT22;64929;51.178;4.138;2023-06-26T06:48:58;21.40;66.50
76172;DHT22;64929;51.178;4.138;2023-06-26T06:51:25;21.40;66.80
76172;DHT22;64929;51.178;4.138;2023-06-26T06:53:51;21.40;67.20
76172;DHT22;64929;51.178;4.138;2023-06-26T06:56:16;21.40;65.50
76172;DHT22;64929;51.178;4.138;2023-06-26T06:58:42;21.40;66.40
76172;DHT22;64929;51.178;4.138;2023-06-26T07:01:09;21.30;67.30
76172;DHT22;64929;51.178;4.138;2023-06-26T07:03:35;21.40;67.70
76172;DHT22;64929;51.178;4.138;2023-06-26T07:06:02;21.60;65.60
76172;DHT22;64929;51.178;4.138;2023-06-26T07:08:29;21.50;65.80
76172;DHT22;64929;51.178;4.138;2023-06-26T07:10:55;21.70;64.80
76172;DHT22;64929;51.178;4.138;2023-06-26T07:13:24;21.80;63.10
76172;DHT22;64929;51.178;4.138;2023-06-26T07:15:50;21.60;64.50
76172;DHT22;64929;51.178;4.138;2023-06-26T07:18:16;21.50;63.90
76172;DHT22;64929;51.178;4.138;2023-06-26T07:20:42;21.50;64.10
76172;DHT22;64929;51.178;4.138;2023-06-26T07:23:08;21.60;65.10
76172;DHT22;64929;51.178;4.138;2023-06-26T07:25:34;21.80;63.00
76172;DHT22;64929;51.178;4.138;2023-06-26T07:27:59;22.00;61.70
76172;DHT22;64929;51.178;4.138;2023-06-26T07:30:25;22.10;62.80
76172;DHT22;64929;51.178;4.138;2023-06-26T07:32:51;21.90;64.00
76172;DHT22;64929;51.178;4.138;2023-06-26T07:35:17;22.00;61.90
76172;DHT22;64929;51.178;4.138;2023-06-26T07:37:43;22.10;62.50
76172;DHT22;64929;51.178;4.138;2023-06-26T07:40:09;22.00;62.50
76172;DHT22;64929;51.178;4.138;2023-06-26T07:42:35;22.00;62.90
76172;DHT22;64929;51.178;4.138;2023-06-26T07:45:01;21.80;62.90
76172;DHT22;64929;51.178;4.138;2023-06-26T07:47:27;21.80;61.60
76172;DHT22;64929;51.178;4.138;2023-06-26T07:49:52;21.90;61.80
76172;DHT22;64929;51.178;4.138;2023-06-26T07:52:19;21.70;64.10
76172;DHT22;64929;51.178;4.138;2023-06-26T07:54:44;21.80;62.60
76172;DHT22;64929;51.178;4.138;2023-06-26T07:57:10;21.50;63.60
76172;DHT22;64929;51.178;4.138;2023-06-26T07:59:37;21.60;63.60
76172;DHT22;64929;51.178;4.138;2023-06-26T08:02:03;21.60;65.00
76172;DHT22;64929;51.178;4.138;2023-06-26T08:04:30;21.70;62.70
76172;DHT22;64929;51.178;4.138;2023-06-26T08:06:58;21.80;63.10
76172;DHT22;64929;51.178;4.138;2023-06-26T08:09:27;21.90;62.70
76172;DHT22;64929;51.178;4.138;2023-06-26T08:11:54;22.00;61.80
76172;DHT22;64929;51.178;4.138;2023-06-26T08:14:20;22.10;62.10
76172;DHT22;64929;51.178;4.138;2023-06-26T08:16:46;22.20;61.80
76172;DHT22;64929;51.178;4.138;2023-06-26T08:19:13;22.20;62.20
76172;DHT22;64929;51.178;4.138;2023-06-26T08:21:45;22.10;62.30
76172;DHT22;64929;51.178;4.138;2023-06-26T08:24:12;22.40;61.00
76172;DHT22;64929;51.178;4.138;2023-06-26T08:26:38;22.30;61.80
76172;DHT22;64929;51.178;4.138;2023-06-26T08:29:05;22.30;62.20
76172;DHT22;64929;51.178;4.138;2023-06-26T08:31:34;22.20;62.60
76172;DHT22;64929;51.178;4.138;2023-06-26T08:34:01;22.30;61.60
76172;DHT22;64929;51.178;4.138;2023-06-26T08:36:26;22.40;64.90
76172;DHT22;64929;51.178;4.138;2023-06-26T08:38:52;22.60;64.40
76172;DHT22;64929;51.178;4.138;2023-06-26T08:41:18;22.50;65.20
76172;DHT22;64929;51.178;4.138;2023-06-26T08:43:43;22.60;64.80
76172;DHT22;64929;51.178;4.138;2023-06-26T08:46:09;22.60;61.50
76172;DHT22;64929;51.178;4.138;2023-06-26T08:48:35;22.70;59.70
76172;DHT22;64929;51.178;4.138;2023-06-26T08:51:12;22.60;59.40
76172;DHT22;64929;51.178;4.138;2023-06-26T08:53:57;22.70;60.80
76172;DHT22;64929;51.178;4.138;2023-06-26T08:56:25;22.60;62.50
76172;DHT22;64929;51.178;4.138;2023-06-26T08:58:53;22.50;61.80
76172;DHT22;64929;51.178;4.138;2023-06-26T09:01:19;22.60;62.70
76172;DHT22;64929;51.178;4.138;2023-06-26T09:03:45;22.60;60.70
76172;DHT22;64929;51.178;4.138;2023-06-26T09:06:12;22.60;60.40
76172;DHT22;64929;51.178;4.138;2023-06-26T09:08:38;22.90;59.50
76172;DHT22;64929;51.178;4.138;2023-06-26T09:11:03;22.70;60.00
76172;DHT22;64929;51.178;4.138;2023-06-26T09:13:30;22.80;61.80
76172;DHT22;64929;51.178;4.138;2023-06-26T09:15:56;23.00;58.50
76172;DHT22;64929;51.178;4.138;2023-06-26T09:18:22;23.00;61.30
76172;DHT22;64929;51.178;4.138;2023-06-26T09:20:48;22.60;56.60
76172;DHT22;64929;51.178;4.138;2023-06-26T09:23:14;22.60;58.00
76172;DHT22;64929;51.178;4.138;2023-06-26T09:25:41;22.60;59.20
76172;DHT22;64929;51.178;4.138;2023-06-26T09:28:08;22.70;60.40
76172;DHT22;64929;51.178;4.138;2023-06-26T09:30:34;22.80;58.30
76172;DHT22;64929;51.178;4.138;2023-06-26T09:33:16;22.80;59.30
76172;DHT22;64929;51.178;4.138;2023-06-26T09:35:43;22.70;57.30
76172;DHT22;64929;51.178;4.138;2023-06-26T09:38:09;22.80;55.40
76172;DHT22;64929;51.178;4.138;2023-06-26T09:40:35;23.00;59.10
76172;DHT22;64929;51.178;4.138;2023-06-26T09:43:04;22.90;58.70
76172;DHT22;64929;51.178;4.138;2023-06-26T09:45:34;22.90;60.00
76172;DHT22;64929;51.178;4.138;2023-06-26T09:48:04;22.90;57.70
76172;DHT22;64929;51.178;4.138;2023-06-26T09:50:32;23.10;57.00
76172;DHT22;64929;51.178;4.138;2023-06-26T09:53:10;23.10;57.80
76172;DHT22;64929;51.178;4.138;2023-06-26T09:55:37;23.50;56.40
76172;DHT22;64929;51.178;4.138;2023-06-26T09:58:03;23.40;54.60
76172;DHT22;64929;51.178;4.138;2023-06-26T10:00:32;23.40;54.60
76172;DHT22;64929;51.178;4.138;2023-06-26T10:02:59;23.30;55.50
76172;DHT22;64929;51.178;4.138;2023-06-26T10:05:25;23.30;55.60
76172;DHT22;64929;51.178;4.138;2023-06-26T10:07:52;23.20;54.50
76172;DHT22;64929;51.178;4.138;2023-06-26T10:10:19;23.30;52.80
76172;DHT22;64929;51.178;4.138;2023-06-26T10:12:48;23.00;56.10
76172;DHT22;64929;51.178;4.138;2023-06-26T10:15:14;23.10;54.60
76172;DHT22;64929;51.178;4.138;2023-06-26T10:17:43;23.30;56.40
76172;DHT22;64929;51.178;4.138;2023-06-26T10:20:10;23.40;52.90
76172;DHT22;64929;51.178;4.138;2023-06-26T10:22:45;23.60;54.30
76172;DHT22;64929;51.178;4.138;2023-06-26T10:25:14;23.80;53.00
76172;DHT22;64929;51.178;4.138;2023-06-26T10:27:45;23.80;52.10
76172;DHT22;64929;51.178;4.138;2023-06-26T10:30:18;23.50;55.50
76172;DHT22;64929;51.178;4.138;2023-06-26T10:32:46;23.60;52.90
76172;DHT22;64929;51.178;4.138;2023-06-26T10:35:12;23.40;55.40
76172;DHT22;64929;51.178;4.138;2023-06-26T10:37:49;23.70;53.90
76172;DHT22;64929;51.178;4.138;2023-06-26T10:40:25;23.70;53.70
76172;DHT22;64929;51.178;4.138;2023-06-26T10:42:51;23.80;53.00
76172;DHT22;64929;51.178;4.138;2023-06-26T10:45:30;23.90;58.00
76172;DHT22;64929;51.178;4.138;2023-06-26T10:47:57;23.90;53.90
76172;DHT22;64929;51.178;4.138;2023-06-26T10:50:25;24.00;54.50
76172;DHT22;64929;51.178;4.138;2023-06-26T10:55:42;23.60;52.30
76172;DHT22;64929;51.178;4.138;2023-06-26T10:58:27;23.90;52.40
76172;DHT22;64929;51.178;4.138;2023-06-26T11:03:38;24.10;52.90
76172;DHT22;64929;51.178;4.138;2023-06-26T11:06:22;24.00;52.90
76172;DHT22;64929;51.178;4.138;2023-06-26T11:08:53;23.80;56.00
76172;DHT22;64929;51.178;4.138;2023-06-26T11:11:20;23.70;52.40
76172;DHT22;64929;51.178;4.138;2023-06-26T11:13:50;23.70;52.80
76172;DHT22;64929;51.178;4.138;2023-06-26T11:16:16;23.70;56.10
76172;DHT22;64929;51.178;4.138;2023-06-26T11:18:42;23.70;51.60
76172;DHT22;64929;51.178;4.138;2023-06-26T11:21:08;23.70;54.40
76172;DHT22;64929;51.178;4.138;2023-06-26T11:23:36;23.90;54.10
76172;DHT22;64929;51.178;4.138;2023-06-26T11:26:19;24.00;51.70
76172;DHT22;64929;51.178;4.138;2023-06-26T11:28:51;24.00;51.90
76172;DHT22;64929;51.178;4.138;2023-06-26T11:31:28;24.10;52.10
76172;DHT22;64929;51.178;4.138;2023-06-26T11:33:56;24.10;49.80
76172;DHT22;64929;51.178;4.138;2023-06-26T11:36:25;24.00;53.30
76172;DHT22;64929;51.178;4.138;2023-06-26T11:38:56;23.80;52.40
76172;DHT22;64929;51.178;4.138;2023-06-26T11:41:21;23.90;52.60
76172;DHT22;64929;51.178;4.138;2023-06-26T11:43:47;23.70;54.40
76172;DHT22;64929;51.178;4.138;2023-06-26T11:46:16;24.00;55.30
76172;DHT22;64929;51.178;4.138;2023-06-26T11:48:42;24.00;52.40
76172;DHT22;64929;51.178;4.138;2023-06-26T11:51:08;24.00;51.80
76172;DHT22;64929;51.178;4.138;2023-06-26T11:53:40;24.10;52.70
76172;DHT22;64929;51.178;4.138;2023-06-26T11:56:10;24.00;50.40
76172;DHT22;64929;51.178;4.138;2023-06-26T11:58:54;24.00;50.10
76172;DHT22;64929;51.178;4.138;2023-06-26T12:01:20;23.90;51.40
76172;DHT22;64929;51.178;4.138;2023-06-26T12:03:48;23.90;51.10
76172;DHT22;64929;51.178;4.138;2023-06-26T12:06:14;24.00;52.20
76172;DHT22;64929;51.178;4.138;2023-06-26T12:08:41;24.20;50.70
76172;DHT22;64929;51.178;4.138;2023-06-26T12:11:07;24.40;49.80
76172;DHT22;64929;51.178;4.138;2023-06-26T12:13:33;24.30;51.60
76172;DHT22;64929;51.178;4.138;2023-06-26T12:15:59;24.20;52.20
76172;DHT22;64929;51.178;4.138;2023-06-26T12:18:25;24.00;50.10
76172;DHT22;64929;51.178;4.138;2023-06-26T12:20:52;24.10;49.80
76172;DHT22;64929;51.178;4.138;2023-06-26T12:23:18;24.30;48.00
76172;DHT22;64929;51.178;4.138;2023-06-26T12:25:44;24.30;47.50
76172;DHT22;64929;51.178;4.138;2023-06-26T12:28:17;23.90;47.60
76172;DHT22;64929;51.178;4.138;2023-06-26T12:30:47;24.00;48.80
76172;DHT22;64929;51.178;4.138;2023-06-26T12:33:33;24.30;50.80
76172;DHT22;64929;51.178;4.138;2023-06-26T12:35:58;24.50;48.20
76172;DHT22;64929;51.178;4.138;2023-06-26T12:38:33;24.60;47.80
76172;DHT22;64929;51.178;4.138;2023-06-26T12:40:58;24.70;47.70
76172;DHT22;64929;51.178;4.138;2023-06-26T12:43:26;24.60;46.50
76172;DHT22;64929;51.178;4.138;2023-06-26T12:45:57;24.40;46.00
76172;DHT22;64929;51.178;4.138;2023-06-26T12:48:43;24.40;48.20
76172;DHT22;64929;51.178;4.138;2023-06-26T12:51:11;24.60;47.30
76172;DHT22;64929;51.178;4.138;2023-06-26T12:53:38;24.60;46.10
76172;DHT22;64929;51.178;4.138;2023-06-26T12:56:07;24.50;47.30
76172;DHT22;64929;51.178;4.138;2023-06-26T12:58:37;24.70;48.80
76172;DHT22;64929;51.178;4.138;2023-06-26T13:01:07;24.80;46.80
76172;DHT22;64929;51.178;4.138;2023-06-26T13:03:39;25.00;47.50
76172;DHT22;64929;51.178;4.138;2023-06-26T13:06:04;25.30;45.30
76172;DHT22;64929;51.178;4.138;2023-06-26T13:08:30;25.10;46.50
76172;DHT22;64929;51.178;4.138;2023-06-26T13:10:56;25.30;45.60
76172;DHT22;64929;51.178;4.138;2023-06-26T13:13:21;25.00;46.50
76172;DHT22;64929;51.178;4.138;2023-06-26T13:15:47;25.30;46.70
76172;DHT22;64929;51.178;4.138;2023-06-26T13:18:13;25.50;47.20
76172;DHT22;64929;51.178;4.138;2023-06-26T13:20:39;25.70;46.20
76172;DHT22;64929;51.178;4.138;2023-06-26T13:23:04;25.80;47.50
76172;DHT22;64929;51.178;4.138;2023-06-26T13:25:30;25.70;45.90
76172;DHT22;64929;51.178;4.138;2023-06-26T13:27:56;25.80;48.50
76172;DHT22;64929;51.178;4.138;2023-06-26T13:30:22;26.10;45.80
76172;DHT22;64929;51.178;4.138;2023-06-26T13:32:48;26.00;45.90
76172;DHT22;64929;51.178;4.138;2023-06-26T13:35:13;26.00;46.40
76172;DHT22;64929;51.178;4.138;2023-06-26T13:37:40;26.30;46.40
76172;DHT22;64929;51.178;4.138;2023-06-26T13:40:07;26.40;44.80
76172;DHT22;64929;51.178;4.138;2023-06-26T13:42:33;26.90;42.60
76172;DHT22;64929;51.178;4.138;2023-06-26T13:44:59;26.90;42.90
76172;DHT22;64929;51.178;4.138;2023-06-26T13:47:24;26.50;43.00
76172;DHT22;64929;51.178;4.138;2023-06-26T13:49:50;26.90;42.40
76172;DHT22;64929;51.178;4.138;2023-06-26T13:52:16;27.10;43.10
76172;DHT22;64929;51.178;4.138;2023-06-26T13:54:41;27.40;42.10
76172;DHT22;64929;51.178;4.138;2023-06-26T13:57:08;27.20;43.40
76172;DHT22;64929;51.178;4.138;2023-06-26T13:59:36;27.30;40.80
76172;DHT22;64929;51.178;4.138;2023-06-26T14:02:02;26.90;41.00
76172;DHT22;64929;51.178;4.138;2023-06-26T14:04:30;26.70;41.60
76172;DHT22;64929;51.178;4.138;2023-06-26T14:06:55;26.70;45.00
76172;DHT22;64929;51.178;4.138;2023-06-26T14:09:21;27.20;48.40
76172;DHT22;64929;51.178;4.138;2023-06-26T14:11:47;27.60;47.50
76172;DHT22;64929;51.178;4.138;2023-06-26T14:14:13;28.70;48.00
76172;DHT22;64929;51.178;4.138;2023-06-26T14:16:39;28.60;46.10
76172;DHT22;64929;51.178;4.138;2023-06-26T14:19:06;28.30;46.60
76172;DHT22;64929;51.178;4.138;2023-06-26T14:21:31;28.30;47.40
76172;DHT22;64929;51.178;4.138;2023-06-26T14:23:58;28.90;46.50
76172;DHT22;64929;51.178;4.138;2023-06-26T14:26:24;28.50;46.20
76172;DHT22;64929;51.178;4.138;2023-06-26T14:28:50;27.70;49.00
76172;DHT22;64929;51.178;4.138;2023-06-26T14:31:16;27.00;48.40
76172;DHT22;64929;51.178;4.138;2023-06-26T14:33:41;26.30;50.10
76172;DHT22;64929;51.178;4.138;2023-06-26T14:36:07;26.50;49.80
76172;DHT22;64929;51.178;4.138;2023-06-26T14:38:33;26.70;50.20
76172;DHT22;64929;51.178;4.138;2023-06-26T14:40:59;26.40;48.70
76172;DHT22;64929;51.178;4.138;2023-06-26T14:43:24;25.90;51.30
76172;DHT22;64929;51.178;4.138;2023-06-26T14:45:50;25.80;48.80
76172;DHT22;64929;51.178;4.138;2023-06-26T14:48:15;25.70;49.10
76172;DHT22;64929;51.178;4.138;2023-06-26T14:50:41;25.90;48.40
76172;DHT22;64929;51.178;4.138;2023-06-26T14:53:07;25.90;47.00
76172;DHT22;64929;51.178;4.138;2023-06-26T14:55:33;26.00;49.30
76172;DHT22;64929;51.178;4.138;2023-06-26T14:57:58;26.00;48.40
76172;DHT22;64929;51.178;4.138;2023-06-26T15:00:24;26.00;47.50
76172;DHT22;64929;51.178;4.138;2023-06-26T15:02:51;26.40;47.40
76172;DHT22;64929;51.178;4.138;2023-06-26T15:05:19;26.60;46.90
76172;DHT22;64929;51.178;4.138;2023-06-26T15:07:46;26.80;47.00
76172;DHT22;64929;51.178;4.138;2023-06-26T15:10:12;27.10;46.30
76172;DHT22;64929;51.178;4.138;2023-06-26T15:12:38;26.80;47.30
76172;DHT22;64929;51.178;4.138;2023-06-26T15:15:04;26.90;47.60
76172;DHT22;64929;51.178;4.138;2023-06-26T15:17:30;27.20;47.90
76172;DHT22;64929;51.178;4.138;2023-06-26T15:19:56;27.00;47.90
76172;DHT22;64929;51.178;4.138;2023-06-26T15:22:22;27.10;48.20
76172;DHT22;64929;51.178;4.138;2023-06-26T15:24:51;27.20;48.50
76172;DHT22;64929;51.178;4.138;2023-06-26T15:27:16;27.40;45.30
76172;DHT22;64929;51.178;4.138;2023-06-26T15:29:42;26.70;47.50
76172;DHT22;64929;51.178;4.138;2023-06-26T15:32:08;26.50;48.80
76172;DHT22;64929;51.178;4.138;2023-06-26T15:34:34;26.40;49.50
76172;DHT22;64929;51.178;4.138;2023-06-26T15:36:59;25.90;49.90
76172;DHT22;64929;51.178;4.138;2023-06-26T15:39:25;25.90;51.40